sensor_id;sensor_type;location;lat;lon;timestamp;P1;durP1;ratioP1;P2;durP2;ratioP2
30553;SDS011;17335;50.720;7.452;2022-12-01T00:02:17;12.05;;;5.45;;
30553;SDS011;17335;50.720;7.452;2022-12-01T00:04:46;11.65;;;5.57;;
30553;SDS011;17335;50.720;7.452;2022-12-01T00:07:13;11.57;;;5.35;;
30553;SDS011;17335;50.720;7.452;2022-12-01T00:09:40;12.32;;;5.97;;
30553;SDS011;17335;50.720;7.452;2022-12-01T00:12:25;11.32;;;5.05;;
30553;SDS011;17335;50.720;7.452;2022-12-01T00:14:51;15.45;;;7.35;;
30553;SDS011;17335;50.720;7.452;2022-12-01T00:17:29;15.40;;;7.00;;
30553;SDS011;17335;50.720;7.452;2022-12-01T00:19:55;12.35;;;5.10;;
30553;SDS011;17335;50.720;7.452;2022-12-01T00:22:22;18.15;;;8.60;;
30553;SDS011;17335;50.720;7.452;2022-12-01T00:24:49;19.13;;;8.52;;
30553;SDS011;17335;50.720;7.452;2022-12-01T00:27:15;36.47;;;13.73;;
30553;SDS011;17335;50.720;7.452;2022-12-01T00:29:42;27.98;;;10.10;;
30553;SDS011;17335;50.720;7.452;2022-12-01T00:32:08;9.90;;;5.55;;
30553;SDS011;17335;50.720;7.452;2022-12-01T00:34:35;12.10;;;5.72;;
30553;SDS011;17335;50.720;7.452;2022-12-01T00:37:03;18.70;;;7.20;;
30553;SDS011;17335;50.720;7.452;2022-12-01T00:39:30;13.35;;;5.97;;
30553;SDS011;17335;50.720;7.452;2022-12-01T00:41:56;11.65;;;5.30;;
30553;SDS011;17335;50.720;7.452;2022-12-01T00:44:23;12.98;;;6.32;;
30553;SDS011;17335;50.720;7.452;2022-12-01T00:46:49;10.52;;;4.70;;
30553;SDS011;17335;50.720;7.452;2022-12-01T00:49:16;14.10;;;4.97;;
30553;SDS011;17335;50.720;7.452;2022-12-01T00:51:42;9.38;;;4.68;;
30553;SDS011;17335;50.720;7.452;2022-12-01T00:54:09;11.70;;;4.68;;
30553;SDS011;17335;50.720;7.452;2022-12-01T00:56:35;10.00;;;5.22;;
30553;SDS011;17335;50.720;7.452;2022-12-01T00:59:02;9.98;;;5.22;;
30553;SDS011;17335;50.720;7.452;2022-12-01T01:01:28;11.10;;;4.95;;
30553;SDS011;17335;50.720;7.452;2022-12-01T01:03:56;11.30;;;4.45;;
30553;SDS011;17335;50.720;7.452;2022-12-01T01:06:23;9.60;;;4.95;;
30553;SDS011;17335;50.720;7.452;2022-12-01T01:08:49;10.85;;;5.22;;
30553;SDS011;17335;50.720;7.452;2022-12-01T01:11:16;13.30;;;5.97;;
30553;SDS011;17335;50.720;7.452;2022-12-01T01:13:43;14.98;;;6.80;;
30553;SDS011;17335;50.720;7.452;2022-12-01T01:16:13;12.77;;;6.45;;
30553;SDS011;17335;50.720;7.452;2022-12-01T01:18:42;12.65;;;6.22;;
30553;SDS011;17335;50.720;7.452;2022-12-01T01:21:10;13.95;;;6.35;;
30553;SDS011;17335;50.720;7.452;2022-12-01T01:23:39;11.35;;;6.10;;
30553;SDS011;17335;50.720;7.452;2022-12-01T01:26:07;10.50;;;5.07;;
30553;SDS011;17335;50.720;7.452;2022-12-01T01:28:38;9.82;;;4.90;;
30553;SDS011;17335;50.720;7.452;2022-12-01T01:31:07;11.68;;;5.85;;
30553;SDS011;17335;50.720;7.452;2022-12-01T01:33:35;10.23;;;5.20;;
30553;SDS011;17335;50.720;7.452;2022-12-01T01:36:02;12.73;;;4.80;;
30553;SDS011;17335;50.720;7.452;2022-12-01T01:38:30;9.57;;;4.68;;
30553;SDS011;17335;50.720;7.452;2022-12-01T01:40:57;11.68;;;5.00;;
30553;SDS011;17335;50.720;7.452;2022-12-01T01:46:05;11.43;;;5.13;;
30553;SDS011;17335;50.720;7.452;2022-12-01T01:48:33;9.98;;;5.00;;
30553;SDS011;17335;50.720;7.452;2022-12-01T01:51:03;11.05;;;5.28;;
30553;SDS011;17335;50.720;7.452;2022-12-01T01:53:30;11.60;;;5.88;;
30553;SDS011;17335;50.720;7.452;2022-12-01T01:55:57;8.73;;;4.65;;
30553;SDS011;17335;50.720;7.452;2022-12-01T01:58:25;10.65;;;4.95;;
30553;SDS011;17335;50.720;7.452;2022-12-01T02:00:52;9.18;;;4.53;;
30553;SDS011;17335;50.720;7.452;2022-12-01T02:03:19;13.45;;;5.72;;
30553;SDS011;17335;50.720;7.452;2022-12-01T02:05:47;11.90;;;5.10;;
30553;SDS011;17335;50.720;7.452;2022-12-01T02:08:14;12.68;;;5.57;;
30553;SDS011;17335;50.720;7.452;2022-12-01T02:16:00;10.93;;;5.88;;
30553;SDS011;17335;50.720;7.452;2022-12-01T02:27:18;9.20;;;4.78;;
30553;SDS011;17335;50.720;7.452;2022-12-01T02:38:33;9.73;;;4.93;;
30553;SDS011;17335;50.720;7.452;2022-12-01T02:41:13;12.43;;;5.38;;
30553;SDS011;17335;50.720;7.452;2022-12-01T02:43:49;12.98;;;6.03;;
30553;SDS011;17335;50.720;7.452;2022-12-01T02:46:40;13.18;;;5.93;;
30553;SDS011;17335;50.720;7.452;2022-12-01T02:49:15;10.88;;;5.43;;
30553;SDS011;17335;50.720;7.452;2022-12-01T02:51:45;12.02;;;5.75;;
30553;SDS011;17335;50.720;7.452;2022-12-01T02:54:13;13.73;;;5.70;;
30553;SDS011;17335;50.720;7.452;2022-12-01T02:56:43;13.70;;;6.28;;
30553;SDS011;17335;50.720;7.452;2022-12-01T02:59:11;13.00;;;5.47;;
30553;SDS011;17335;50.720;7.452;2022-12-01T03:01:41;13.30;;;5.50;;
30553;SDS011;17335;50.720;7.452;2022-12-01T03:04:30;13.88;;;6.55;;
30553;SDS011;17335;50.720;7.452;2022-12-01T03:10:21;13.15;;;6.03;;
30553;SDS011;17335;50.720;7.452;2022-12-01T03:15:52;16.58;;;6.22;;
30553;SDS011;17335;50.720;7.452;2022-12-01T03:18:30;10.55;;;5.70;;
30553;SDS011;17335;50.720;7.452;2022-12-01T03:21:07;14.00;;;5.78;;
30553;SDS011;17335;50.720;7.452;2022-12-01T03:23:36;12.25;;;6.07;;
30553;SDS011;17335;50.720;7.452;2022-12-01T03:26:08;13.38;;;6.80;;
30553;SDS011;17335;50.720;7.452;2022-12-01T03:28:43;11.48;;;5.70;;
30553;SDS011;17335;50.720;7.452;2022-12-01T03:31:16;12.00;;;5.50;;
30553;SDS011;17335;50.720;7.452;2022-12-01T03:33:51;13.00;;;6.38;;
30553;SDS011;17335;50.720;7.452;2022-12-01T03:36:26;10.30;;;5.68;;
30553;SDS011;17335;50.720;7.452;2022-12-01T03:38:59;12.95;;;6.43;;
30553;SDS011;17335;50.720;7.452;2022-12-01T03:41:32;13.82;;;6.05;;
30553;SDS011;17335;50.720;7.452;2022-12-01T03:44:05;12.00;;;5.70;;
30553;SDS011;17335;50.720;7.452;2022-12-01T03:46:46;11.95;;;5.55;;
30553;SDS011;17335;50.720;7.452;2022-12-01T03:49:19;14.52;;;6.40;;
30553;SDS011;17335;50.720;7.452;2022-12-01T03:52:32;14.25;;;6.50;;
30553;SDS011;17335;50.720;7.452;2022-12-01T03:57:14;13.10;;;5.80;;
30553;SDS011;17335;50.720;7.452;2022-12-01T03:59:46;16.90;;;6.53;;
30553;SDS011;17335;50.720;7.452;2022-12-01T04:02:13;15.27;;;7.10;;
30553;SDS011;17335;50.720;7.452;2022-12-01T04:04:40;11.60;;;6.28;;
30553;SDS011;17335;50.720;7.452;2022-12-01T04:07:06;14.43;;;6.32;;
30553;SDS011;17335;50.720;7.452;2022-12-01T04:09:39;17.10;;;7.20;;
30553;SDS011;17335;50.720;7.452;2022-12-01T04:12:08;13.90;;;6.30;;
30553;SDS011;17335;50.720;7.452;2022-12-01T04:14:56;13.57;;;6.60;;
30553;SDS011;17335;50.720;7.452;2022-12-01T04:17:23;14.98;;;6.55;;
30553;SDS011;17335;50.720;7.452;2022-12-01T04:19:50;16.17;;;7.25;;
30553;SDS011;17335;50.720;7.452;2022-12-01T04:22:17;14.88;;;6.38;;
30553;SDS011;17335;50.720;7.452;2022-12-01T04:24:44;16.77;;;6.90;;
30553;SDS011;17335;50.720;7.452;2022-12-01T04:27:10;18.92;;;6.90;;
30553;SDS011;17335;50.720;7.452;2022-12-01T04:29:37;14.68;;;6.53;;
30553;SDS011;17335;50.720;7.452;2022-12-01T04:32:03;13.75;;;6.63;;
30553;SDS011;17335;50.720;7.452;2022-12-01T04:34:30;14.65;;;7.25;;
30553;SDS011;17335;50.720;7.452;2022-12-01T04:36:57;13.20;;;7.03;;
30553;SDS011;17335;50.720;7.452;2022-12-01T04:39:23;17.48;;;6.70;;
30553;SDS011;17335;50.720;7.452;2022-12-01T04:41:50;16.65;;;6.68;;
30553;SDS011;17335;50.720;7.452;2022-12-01T04:44:16;23.90;;;7.40;;
30553;SDS011;17335;50.720;7.452;2022-12-01T04:46:43;13.43;;;6.43;;
30553;SDS011;17335;50.720;7.452;2022-12-01T04:49:10;14.23;;;6.82;;
30553;SDS011;17335;50.720;7.452;2022-12-01T04:51:36;14.13;;;5.95;;
30553;SDS011;17335;50.720;7.452;2022-12-01T04:54:03;16.30;;;6.82;;
30553;SDS011;17335;50.720;7.452;2022-12-01T04:56:31;15.65;;;6.80;;
30553;SDS011;17335;50.720;7.452;2022-12-01T04:58:59;15.88;;;7.18;;
30553;SDS011;17335;50.720;7.452;2022-12-01T05:01:26;18.23;;;6.65;;
30553;SDS011;17335;50.720;7.452;2022-12-01T05:03:52;21.67;;;7.00;;
30553;SDS011;17335;50.720;7.452;2022-12-01T05:06:20;16.92;;;6.85;;
30553;SDS011;17335;50.720;7.452;2022-12-01T05:08:48;14.77;;;6.22;;
30553;SDS011;17335;50.720;7.452;2022-12-01T05:11:16;16.42;;;6.72;;
30553;SDS011;17335;50.720;7.452;2022-12-01T05:13:44;14.15;;;6.65;;
30553;SDS011;17335;50.720;7.452;2022-12-01T05:16:14;15.07;;;7.32;;
30553;SDS011;17335;50.720;7.452;2022-12-01T05:18:50;19.73;;;7.20;;
30553;SDS011;17335;50.720;7.452;2022-12-01T05:21:39;17.17;;;6.82;;
30553;SDS011;17335;50.720;7.452;2022-12-01T05:24:07;15.95;;;7.18;;
30553;SDS011;17335;50.720;7.452;2022-12-01T05:26:35;17.63;;;7.15;;
30553;SDS011;17335;50.720;7.452;2022-12-01T05:29:02;15.13;;;7.25;;
30553;SDS011;17335;50.720;7.452;2022-12-01T05:31:28;15.13;;;7.32;;
30553;SDS011;17335;50.720;7.452;2022-12-01T05:33:55;19.88;;;8.05;;
30553;SDS011;17335;50.720;7.452;2022-12-01T05:36:22;21.75;;;7.85;;
30553;SDS011;17335;50.720;7.452;2022-12-01T05:38:48;15.98;;;7.10;;
30553;SDS011;17335;50.720;7.452;2022-12-01T05:41:15;19.63;;;7.35;;
30553;SDS011;17335;50.720;7.452;2022-12-01T05:43:42;19.25;;;7.85;;
30553;SDS011;17335;50.720;7.452;2022-12-01T05:46:09;15.18;;;6.55;;
30553;SDS011;17335;50.720;7.452;2022-12-01T05:48:36;17.85;;;7.72;;
30553;SDS011;17335;50.720;7.452;2022-12-01T05:51:09;18.65;;;6.88;;
30553;SDS011;17335;50.720;7.452;2022-12-01T05:53:37;20.63;;;7.38;;
30553;SDS011;17335;50.720;7.452;2022-12-01T05:56:04;15.73;;;6.53;;
30553;SDS011;17335;50.720;7.452;2022-12-01T05:58:32;19.58;;;7.47;;
30553;SDS011;17335;50.720;7.452;2022-12-01T06:01:00;21.98;;;8.38;;
30553;SDS011;17335;50.720;7.452;2022-12-01T06:03:27;19.08;;;7.95;;
30553;SDS011;17335;50.720;7.452;2022-12-01T06:05:53;22.33;;;8.20;;
30553;SDS011;17335;50.720;7.452;2022-12-01T06:08:20;23.58;;;8.27;;
30553;SDS011;17335;50.720;7.452;2022-12-01T06:10:46;19.23;;;7.45;;
30553;SDS011;17335;50.720;7.452;2022-12-01T06:13:13;23.75;;;7.90;;
30553;SDS011;17335;50.720;7.452;2022-12-01T06:15:40;24.67;;;8.52;;
30553;SDS011;17335;50.720;7.452;2022-12-01T06:18:06;18.08;;;8.23;;
30553;SDS011;17335;50.720;7.452;2022-12-01T06:20:33;18.17;;;7.60;;
30553;SDS011;17335;50.720;7.452;2022-12-01T06:22:59;19.13;;;7.72;;
30553;SDS011;17335;50.720;7.452;2022-12-01T06:25:26;16.80;;;7.43;;
30553;SDS011;17335;50.720;7.452;2022-12-01T06:27:56;22.90;;;8.13;;
30553;SDS011;17335;50.720;7.452;2022-12-01T06:30:23;19.75;;;8.52;;
30553;SDS011;17335;50.720;7.452;2022-12-01T06:32:50;19.80;;;8.50;;
30553;SDS011;17335;50.720;7.452;2022-12-01T06:35:17;19.80;;;9.45;;
30553;SDS011;17335;50.720;7.452;2022-12-01T06:37:43;18.70;;;7.82;;
30553;SDS011;17335;50.720;7.452;2022-12-01T06:40:10;22.35;;;8.88;;
30553;SDS011;17335;50.720;7.452;2022-12-01T06:42:37;22.92;;;9.20;;
30553;SDS011;17335;50.720;7.452;2022-12-01T06:45:03;18.42;;;8.82;;
30553;SDS011;17335;50.720;7.452;2022-12-01T06:47:30;19.75;;;8.15;;
30553;SDS011;17335;50.720;7.452;2022-12-01T06:49:57;22.25;;;8.98;;
30553;SDS011;17335;50.720;7.452;2022-12-01T06:52:23;20.33;;;7.43;;
30553;SDS011;17335;50.720;7.452;2022-12-01T06:54:49;20.15;;;9.55;;
30553;SDS011;17335;50.720;7.452;2022-12-01T06:57:16;23.15;;;8.63;;
30553;SDS011;17335;50.720;7.452;2022-12-01T06:59:43;20.48;;;8.90;;
30553;SDS011;17335;50.720;7.452;2022-12-01T07:02:10;22.73;;;9.63;;
30553;SDS011;17335;50.720;7.452;2022-12-01T07:04:37;19.13;;;8.52;;
30553;SDS011;17335;50.720;7.452;2022-12-01T07:07:04;19.02;;;8.23;;
30553;SDS011;17335;50.720;7.452;2022-12-01T07:09:31;20.05;;;8.18;;
30553;SDS011;17335;50.720;7.452;2022-12-01T07:11:57;19.65;;;9.10;;
30553;SDS011;17335;50.720;7.452;2022-12-01T07:14:24;26.70;;;9.27;;
30553;SDS011;17335;50.720;7.452;2022-12-01T07:16:52;19.85;;;9.20;;
30553;SDS011;17335;50.720;7.452;2022-12-01T07:19:19;25.30;;;9.35;;
30553;SDS011;17335;50.720;7.452;2022-12-01T07:21:45;21.13;;;8.20;;
30553;SDS011;17335;50.720;7.452;2022-12-01T07:24:12;22.80;;;9.05;;
30553;SDS011;17335;50.720;7.452;2022-12-01T07:26:39;20.17;;;8.25;;
30553;SDS011;17335;50.720;7.452;2022-12-01T07:29:10;21.23;;;8.77;;
30553;SDS011;17335;50.720;7.452;2022-12-01T07:31:36;20.90;;;8.65;;
30553;SDS011;17335;50.720;7.452;2022-12-01T07:34:04;20.15;;;8.65;;
30553;SDS011;17335;50.720;7.452;2022-12-01T07:36:31;19.88;;;8.73;;
30553;SDS011;17335;50.720;7.452;2022-12-01T07:38:58;22.98;;;8.55;;
30553;SDS011;17335;50.720;7.452;2022-12-01T07:41:24;23.30;;;9.88;;
30553;SDS011;17335;50.720;7.452;2022-12-01T07:43:51;19.27;;;8.80;;
30553;SDS011;17335;50.720;7.452;2022-12-01T07:46:18;21.48;;;8.43;;
30553;SDS011;17335;50.720;7.452;2022-12-01T07:48:49;25.50;;;9.30;;
30553;SDS011;17335;50.720;7.452;2022-12-01T07:51:16;19.00;;;8.32;;
30553;SDS011;17335;50.720;7.452;2022-12-01T07:53:44;22.98;;;9.23;;
30553;SDS011;17335;50.720;7.452;2022-12-01T07:56:11;20.80;;;8.82;;
30553;SDS011;17335;50.720;7.452;2022-12-01T07:58:38;18.08;;;8.48;;
30553;SDS011;17335;50.720;7.452;2022-12-01T08:01:09;19.60;;;8.50;;
30553;SDS011;17335;50.720;7.452;2022-12-01T08:03:37;26.30;;;9.52;;
30553;SDS011;17335;50.720;7.452;2022-12-01T08:06:04;20.52;;;8.77;;
30553;SDS011;17335;50.720;7.452;2022-12-01T08:08:34;24.10;;;9.52;;
30553;SDS011;17335;50.720;7.452;2022-12-01T08:11:03;19.60;;;10.60;;
30553;SDS011;17335;50.720;7.452;2022-12-01T08:13:32;25.05;;;9.68;;
30553;SDS011;17335;50.720;7.452;2022-12-01T08:16:01;26.70;;;10.52;;
30553;SDS011;17335;50.720;7.452;2022-12-01T08:18:29;26.05;;;10.23;;
30553;SDS011;17335;50.720;7.452;2022-12-01T08:20:55;28.58;;;10.70;;
30553;SDS011;17335;50.720;7.452;2022-12-01T08:23:25;20.88;;;9.27;;
30553;SDS011;17335;50.720;7.452;2022-12-01T08:25:51;28.77;;;10.63;;
30553;SDS011;17335;50.720;7.452;2022-12-01T08:28:18;26.13;;;10.77;;
30553;SDS011;17335;50.720;7.452;2022-12-01T08:30:46;29.55;;;10.60;;
30553;SDS011;17335;50.720;7.452;2022-12-01T08:33:12;25.70;;;10.27;;
30553;SDS011;17335;50.720;7.452;2022-12-01T08:35:39;26.80;;;9.43;;
30553;SDS011;17335;50.720;7.452;2022-12-01T08:38:05;23.15;;;10.00;;
30553;SDS011;17335;50.720;7.452;2022-12-01T08:40:32;28.40;;;11.18;;
30553;SDS011;17335;50.720;7.452;2022-12-01T08:42:58;34.75;;;11.23;;
30553;SDS011;17335;50.720;7.452;2022-12-01T08:45:25;27.13;;;9.98;;
30553;SDS011;17335;50.720;7.452;2022-12-01T08:47:52;25.60;;;11.13;;
30553;SDS011;17335;50.720;7.452;2022-12-01T08:50:19;22.55;;;10.18;;
30553;SDS011;17335;50.720;7.452;2022-12-01T08:52:46;28.55;;;10.90;;
30553;SDS011;17335;50.720;7.452;2022-12-01T08:55:12;27.88;;;11.07;;
30553;SDS011;17335;50.720;7.452;2022-12-01T08:57:41;28.63;;;10.95;;
30553;SDS011;17335;50.720;7.452;2022-12-01T09:00:07;31.05;;;11.23;;
30553;SDS011;17335;50.720;7.452;2022-12-01T09:02:34;29.77;;;11.73;;
30553;SDS011;17335;50.720;7.452;2022-12-01T09:05:01;28.40;;;10.90;;
30553;SDS011;17335;50.720;7.452;2022-12-01T09:07:28;26.38;;;11.73;;
30553;SDS011;17335;50.720;7.452;2022-12-01T09:09:54;24.33;;;9.95;;
30553;SDS011;17335;50.720;7.452;2022-12-01T09:12:21;25.92;;;10.80;;
30553;SDS011;17335;50.720;7.452;2022-12-01T09:14:47;24.63;;;11.27;;
30553;SDS011;17335;50.720;7.452;2022-12-01T09:17:15;22.33;;;10.52;;
30553;SDS011;17335;50.720;7.452;2022-12-01T09:19:42;27.95;;;9.77;;
30553;SDS011;17335;50.720;7.452;2022-12-01T09:22:10;23.00;;;10.43;;
30553;SDS011;17335;50.720;7.452;2022-12-01T09:24:37;24.95;;;11.10;;
30553;SDS011;17335;50.720;7.452;2022-12-01T09:27:04;22.48;;;9.63;;
30553;SDS011;17335;50.720;7.452;2022-12-01T09:29:30;23.67;;;9.82;;
30553;SDS011;17335;50.720;7.452;2022-12-01T09:31:58;27.63;;;11.48;;
30553;SDS011;17335;50.720;7.452;2022-12-01T09:34:25;23.20;;;10.63;;
30553;SDS011;17335;50.720;7.452;2022-12-01T09:36:53;21.88;;;9.73;;
30553;SDS011;17335;50.720;7.452;2022-12-01T09:39:22;22.92;;;9.77;;
30553;SDS011;17335;50.720;7.452;2022-12-01T09:41:49;23.42;;;9.45;;
30553;SDS011;17335;50.720;7.452;2022-12-01T09:44:50;21.23;;;9.32;;
30553;SDS011;17335;50.720;7.452;2022-12-01T09:52:41;23.25;;;9.48;;
30553;SDS011;17335;50.720;7.452;2022-12-01T09:55:13;22.95;;;9.38;;
30553;SDS011;17335;50.720;7.452;2022-12-01T09:57:42;19.27;;;8.48;;
30553;SDS011;17335;50.720;7.452;2022-12-01T10:02:43;19.70;;;9.18;;
30553;SDS011;17335;50.720;7.452;2022-12-01T10:05:17;18.58;;;8.52;;
30553;SDS011;17335;50.720;7.452;2022-12-01T10:07:48;19.63;;;8.93;;
30553;SDS011;17335;50.720;7.452;2022-12-01T10:10:32;21.75;;;8.55;;
30553;SDS011;17335;50.720;7.452;2022-12-01T10:13:01;20.17;;;8.85;;
30553;SDS011;17335;50.720;7.452;2022-12-01T10:15:38;17.75;;;8.45;;
30553;SDS011;17335;50.720;7.452;2022-12-01T10:18:19;19.63;;;9.20;;
30553;SDS011;17335;50.720;7.452;2022-12-01T10:21:25;20.20;;;8.30;;
30553;SDS011;17335;50.720;7.452;2022-12-01T10:26:50;23.30;;;9.55;;
30553;SDS011;17335;50.720;7.452;2022-12-01T10:31:55;16.70;;;8.18;;
30553;SDS011;17335;50.720;7.452;2022-12-01T10:34:26;18.58;;;8.65;;
30553;SDS011;17335;50.720;7.452;2022-12-01T10:36:55;19.17;;;8.38;;
30553;SDS011;17335;50.720;7.452;2022-12-01T10:39:36;16.10;;;7.40;;
30553;SDS011;17335;50.720;7.452;2022-12-01T10:42:06;15.73;;;7.60;;
30553;SDS011;17335;50.720;7.452;2022-12-01T10:44:42;16.35;;;7.40;;
30553;SDS011;17335;50.720;7.452;2022-12-01T10:47:15;19.45;;;7.88;;
30553;SDS011;17335;50.720;7.452;2022-12-01T10:49:46;15.38;;;7.13;;
30553;SDS011;17335;50.720;7.452;2022-12-01T10:52:30;14.75;;;7.22;;
30553;SDS011;17335;50.720;7.452;2022-12-01T10:55:05;14.98;;;7.20;;
30553;SDS011;17335;50.720;7.452;2022-12-01T10:57:51;18.33;;;7.43;;
30553;SDS011;17335;50.720;7.452;2022-12-01T11:00:20;13.35;;;6.80;;
30553;SDS011;17335;50.720;7.452;2022-12-01T11:03:24;22.83;;;7.35;;
30553;SDS011;17335;50.720;7.452;2022-12-01T11:06:03;14.98;;;7.10;;
30553;SDS011;17335;50.720;7.452;2022-12-01T11:08:39;14.30;;;6.95;;
30553;SDS011;17335;50.720;7.452;2022-12-01T11:11:29;16.45;;;7.65;;
30553;SDS011;17335;50.720;7.452;2022-12-01T11:14:03;17.27;;;7.47;;
30553;SDS011;17335;50.720;7.452;2022-12-01T11:16:42;13.80;;;6.53;;
30553;SDS011;17335;50.720;7.452;2022-12-01T11:21:58;14.93;;;6.65;;
30553;SDS011;17335;50.720;7.452;2022-12-01T11:24:29;20.33;;;7.63;;
30553;SDS011;17335;50.720;7.452;2022-12-01T11:27:15;14.95;;;7.43;;
30553;SDS011;17335;50.720;7.452;2022-12-01T11:29:44;16.80;;;7.13;;
30553;SDS011;17335;50.720;7.452;2022-12-01T11:32:30;20.50;;;7.65;;
30553;SDS011;17335;50.720;7.452;2022-12-01T11:37:37;20.92;;;8.27;;
30553;SDS011;17335;50.720;7.452;2022-12-01T11:40:29;14.20;;;6.72;;
30553;SDS011;17335;50.720;7.452;2022-12-01T11:43:00;16.13;;;7.35;;
30553;SDS011;17335;50.720;7.452;2022-12-01T11:45:39;16.88;;;7.40;;
30553;SDS011;17335;50.720;7.452;2022-12-01T11:53:44;14.50;;;7.97;;
30553;SDS011;17335;50.720;7.452;2022-12-01T11:58:49;18.08;;;8.02;;
30553;SDS011;17335;50.720;7.452;2022-12-01T12:17:56;26.05;;;9.57;;
30553;SDS011;17335;50.720;7.452;2022-12-01T12:31:59;22.60;;;9.38;;
30553;SDS011;17335;50.720;7.452;2022-12-01T12:34:47;22.02;;;9.63;;
30553;SDS011;17335;50.720;7.452;2022-12-01T12:37:19;20.77;;;8.65;;
30553;SDS011;17335;50.720;7.452;2022-12-01T12:45:50;20.02;;;9.02;;
30553;SDS011;17335;50.720;7.452;2022-12-01T12:51:31;22.30;;;9.82;;
30553;SDS011;17335;50.720;7.452;2022-12-01T12:56:37;25.15;;;10.35;;
30553;SDS011;17335;50.720;7.452;2022-12-01T12:59:10;26.35;;;9.77;;
30553;SDS011;17335;50.720;7.452;2022-12-01T13:01:45;28.95;;;11.18;;
30553;SDS011;17335;50.720;7.452;2022-12-01T13:04:21;31.27;;;12.20;;
30553;SDS011;17335;50.720;7.452;2022-12-01T13:07:04;33.42;;;10.65;;
30553;SDS011;17335;50.720;7.452;2022-12-01T13:09:40;28.95;;;10.50;;
30553;SDS011;17335;50.720;7.452;2022-12-01T13:14:55;36.63;;;13.65;;
30553;SDS011;17335;50.720;7.452;2022-12-01T13:17:29;32.95;;;12.38;;
30553;SDS011;17335;50.720;7.452;2022-12-01T13:20:02;32.88;;;13.65;;
30553;SDS011;17335;50.720;7.452;2022-12-01T13:22:33;37.05;;;14.07;;
30553;SDS011;17335;50.720;7.452;2022-12-01T13:25:01;37.60;;;14.13;;
30553;SDS011;17335;50.720;7.452;2022-12-01T13:27:30;38.25;;;14.25;;
30553;SDS011;17335;50.720;7.452;2022-12-01T13:30:00;30.80;;;13.05;;
30553;SDS011;17335;50.720;7.452;2022-12-01T13:32:30;38.20;;;14.45;;
30553;SDS011;17335;50.720;7.452;2022-12-01T13:35:00;42.03;;;14.55;;
30553;SDS011;17335;50.720;7.452;2022-12-01T13:37:32;36.13;;;13.93;;
30553;SDS011;17335;50.720;7.452;2022-12-01T13:40:19;40.25;;;15.32;;
30553;SDS011;17335;50.720;7.452;2022-12-01T13:42:58;39.28;;;14.35;;
30553;SDS011;17335;50.720;7.452;2022-12-01T13:45:37;38.53;;;15.17;;
30553;SDS011;17335;50.720;7.452;2022-12-01T13:48:07;37.78;;;14.00;;
30553;SDS011;17335;50.720;7.452;2022-12-01T13:51:02;42.63;;;14.05;;
30553;SDS011;17335;50.720;7.452;2022-12-01T13:53:31;41.88;;;14.57;;
30553;SDS011;17335;50.720;7.452;2022-12-01T13:58:44;45.08;;;15.27;;
30553;SDS011;17335;50.720;7.452;2022-12-01T14:06:46;51.83;;;16.85;;
30553;SDS011;17335;50.720;7.452;2022-12-01T14:09:29;44.72;;;15.75;;
30553;SDS011;17335;50.720;7.452;2022-12-01T14:12:01;45.17;;;15.60;;
30553;SDS011;17335;50.720;7.452;2022-12-01T14:14:34;47.38;;;16.13;;
30553;SDS011;17335;50.720;7.452;2022-12-01T14:17:03;38.70;;;15.98;;
30553;SDS011;17335;50.720;7.452;2022-12-01T14:21:59;49.47;;;15.40;;
30553;SDS011;17335;50.720;7.452;2022-12-01T14:24:33;46.35;;;15.45;;
30553;SDS011;17335;50.720;7.452;2022-12-01T14:29:31;48.67;;;15.25;;
30553;SDS011;17335;50.720;7.452;2022-12-01T14:32:25;47.58;;;16.13;;
30553;SDS011;17335;50.720;7.452;2022-12-01T14:34:51;45.22;;;16.25;;
30553;SDS011;17335;50.720;7.452;2022-12-01T14:37:22;44.00;;;16.85;;
30553;SDS011;17335;50.720;7.452;2022-12-01T14:39:56;49.28;;;17.67;;
30553;SDS011;17335;50.720;7.452;2022-12-01T14:42:35;43.25;;;15.63;;
30553;SDS011;17335;50.720;7.452;2022-12-01T14:45:27;40.47;;;13.88;;
30553;SDS011;17335;50.720;7.452;2022-12-01T14:48:07;43.92;;;14.05;;
30553;SDS011;17335;50.720;7.452;2022-12-01T14:50:50;44.78;;;15.18;;
30553;SDS011;17335;50.720;7.452;2022-12-01T14:53:30;45.90;;;16.35;;
30553;SDS011;17335;50.720;7.452;2022-12-01T14:56:10;44.60;;;15.07;;
30553;SDS011;17335;50.720;7.452;2022-12-01T14:58:41;42.58;;;13.95;;
30553;SDS011;17335;50.720;7.452;2022-12-01T15:01:17;40.55;;;14.85;;
30553;SDS011;17335;50.720;7.452;2022-12-01T15:03:45;40.08;;;13.48;;
30553;SDS011;17335;50.720;7.452;2022-12-01T15:06:19;46.17;;;14.80;;
30553;SDS011;17335;50.720;7.452;2022-12-01T15:12:00;39.05;;;13.95;;
30553;SDS011;17335;50.720;7.452;2022-12-01T15:14:30;42.85;;;14.63;;
30553;SDS011;17335;50.720;7.452;2022-12-01T15:16:57;40.20;;;13.68;;
30553;SDS011;17335;50.720;7.452;2022-12-01T15:22:01;42.35;;;13.10;;
30553;SDS011;17335;50.720;7.452;2022-12-01T15:24:40;38.65;;;13.30;;
30553;SDS011;17335;50.720;7.452;2022-12-01T15:27:21;39.50;;;13.60;;
30553;SDS011;17335;50.720;7.452;2022-12-01T15:29:53;40.60;;;13.48;;
30553;SDS011;17335;50.720;7.452;2022-12-01T15:32:21;38.05;;;13.48;;
30553;SDS011;17335;50.720;7.452;2022-12-01T15:34:51;43.03;;;13.93;;
30553;SDS011;17335;50.720;7.452;2022-12-01T15:37:21;35.90;;;13.00;;
30553;SDS011;17335;50.720;7.452;2022-12-01T15:39:51;39.20;;;14.48;;
30553;SDS011;17335;50.720;7.452;2022-12-01T15:42:37;46.28;;;13.82;;
30553;SDS011;17335;50.720;7.452;2022-12-01T15:45:15;38.80;;;13.85;;
30553;SDS011;17335;50.720;7.452;2022-12-01T15:47:45;38.20;;;13.27;;
30553;SDS011;17335;50.720;7.452;2022-12-01T15:50:33;40.88;;;13.70;;
30553;SDS011;17335;50.720;7.452;2022-12-01T15:53:27;37.33;;;13.35;;
30553;SDS011;17335;50.720;7.452;2022-12-01T15:55:59;45.25;;;15.70;;
30553;SDS011;17335;50.720;7.452;2022-12-01T15:58:30;50.80;;;15.60;;
30553;SDS011;17335;50.720;7.452;2022-12-01T16:01:01;38.58;;;15.05;;
30553;SDS011;17335;50.720;7.452;2022-12-01T16:03:31;49.92;;;16.85;;
30553;SDS011;17335;50.720;7.452;2022-12-01T16:06:11;49.88;;;15.98;;
30553;SDS011;17335;50.720;7.452;2022-12-01T16:08:38;45.63;;;16.70;;
30553;SDS011;17335;50.720;7.452;2022-12-01T16:11:22;40.78;;;16.00;;
30553;SDS011;17335;50.720;7.452;2022-12-01T16:16:46;46.67;;;15.90;;
30553;SDS011;17335;50.720;7.452;2022-12-01T16:21:51;49.28;;;16.42;;
30553;SDS011;17335;50.720;7.452;2022-12-01T16:29:33;50.17;;;16.67;;
30553;SDS011;17335;50.720;7.452;2022-12-01T16:32:16;51.35;;;16.45;;
30553;SDS011;17335;50.720;7.452;2022-12-01T16:34:48;39.72;;;15.73;;
30553;SDS011;17335;50.720;7.452;2022-12-01T16:37:16;44.63;;;16.23;;
30553;SDS011;17335;50.720;7.452;2022-12-01T16:39:43;48.10;;;17.48;;
30553;SDS011;17335;50.720;7.452;2022-12-01T16:42:11;64.85;;;18.92;;
30553;SDS011;17335;50.720;7.452;2022-12-01T16:44:41;50.90;;;16.20;;
30553;SDS011;17335;50.720;7.452;2022-12-01T16:47:19;47.80;;;16.38;;
30553;SDS011;17335;50.720;7.452;2022-12-01T16:49:48;51.13;;;16.65;;
30553;SDS011;17335;50.720;7.452;2022-12-01T16:52:14;45.28;;;16.27;;
30553;SDS011;17335;50.720;7.452;2022-12-01T16:55:01;49.30;;;15.50;;
30553;SDS011;17335;50.720;7.452;2022-12-01T16:57:28;48.28;;;17.23;;
30553;SDS011;17335;50.720;7.452;2022-12-01T16:59:54;47.63;;;15.95;;
30553;SDS011;17335;50.720;7.452;2022-12-01T17:02:21;46.28;;;16.77;;
30553;SDS011;17335;50.720;7.452;2022-12-01T17:04:47;44.40;;;15.77;;
30553;SDS011;17335;50.720;7.452;2022-12-01T17:07:14;50.25;;;17.90;;